Time;durP1;ratioP1;P1;durP2;ratioP2;P2;SDS_P1;SDS_P2;PMS_P1;PMS_P2;Temp;Humidity;BMP_temperature;BMP_pressure;BME280_temperature;BME280_humidity;BME280_pressure;Samples;Min_cycle;Max_cycle;Signal;HPM_P1;HPM_P2
2022/08/16 00:00:07;;;;;;;9.90;6.18;;;19.20;99.90;;;;;;5015637;28;20274;-65
2022/08/16 00:02:33;;;;;;;7.70;6.13;;;19.10;99.90;;;;;;5015695;28;20175;-65
2022/08/16 00:05:00;;;;;;;10.07;7.13;;;19.10;99.90;;;;;;5015502;28;20175;-65
2022/08/16 00:07:28;;;;;;;8.13;6.18;;;19.00;99.90;;;;;;4997765;28;20298;-65
2022/08/16 00:09:54;;;;;;;7.43;6.22;;;18.90;99.90;;;;;;5015781;28;20195;-65
2022/08/16 00:12:20;;;;;;;8.27;5.70;;;19.00;99.90;;;;;;5015601;28;20687;-65
2022/08/16 00:14:46;;;;;;;8.25;5.68;;;18.90;99.90;;;;;;5015810;28;20286;-65
2022/08/16 00:17:11;;;;;;;7.82;5.95;;;18.80;99.90;;;;;;5014920;28;20660;-65
2022/08/16 00:19:37;;;;;;;6.85;5.40;;;18.80;99.90;;;;;;5015491;28;20196;-65
2022/08/16 00:22:03;;;;;;;8.50;5.75;;;18.70;99.90;;;;;;5015362;28;20663;-65
2022/08/16 00:24:30;;;;;;;7.68;5.32;;;18.60;99.90;;;;;;5015143;28;20267;-65
2022/08/16 00:26:56;;;;;;;9.02;6.18;;;18.60;99.90;;;;;;5015512;28;20196;-65
2022/08/16 00:29:22;;;;;;;9.80;5.72;;;18.60;99.90;;;;;;5015407;28;20203;-65
2022/08/16 00:31:50;;;;;;;8.65;7.32;;;18.60;99.90;;;;;;5016464;28;20168;-65
2022/08/16 00:34:18;;;;;;;11.35;7.35;;;18.60;99.90;;;;;;5030657;28;20206;-65
2022/08/16 00:36:45;;;;;;;11.07;7.15;;;18.60;99.90;;;;;;5015115;28;20540;-65
2022/08/16 00:39:13;;;;;;;9.13;6.97;;;18.50;99.90;;;;;;4997511;28;20182;-65
2022/08/16 00:41:40;;;;;;;10.68;6.05;;;18.50;99.90;;;;;;5015185;28;20168;-65
2022/08/16 00:44:09;;;;;;;9.07;6.03;;;18.40;99.90;;;;;;5014893;28;20176;-65
2022/08/16 00:46:51;;;;;;;9.88;7.13;;;18.40;99.90;;;;;;4997291;28;20183;-65
2022/08/16 00:49:18;;;;;;;12.90;8.05;;;18.40;99.90;;;;;;5029860;28;20636;-65
2022/08/16 00:51:44;;;;;;;9.77;6.88;;;18.40;99.90;;;;;;5014842;28;20180;-65
2022/08/16 00:54:11;;;;;;;9.57;6.70;;;18.40;99.90;;;;;;5014677;28;20183;-65
2022/08/16 00:56:40;;;;;;;8.90;7.53;;;18.40;99.90;;;;;;5014564;28;20214;-65
2022/08/16 00:59:09;;;;;;;8.70;6.38;;;18.30;99.90;;;;;;5014429;28;20168;-65
2022/08/16 01:01:35;;;;;;;8.45;5.88;;;18.30;99.90;;;;;;5015077;28;20176;-65
2022/08/16 01:04:01;;;;;;;7.90;6.57;;;18.20;99.90;;;;;;5014837;28;20168;-65
2022/08/16 01:06:27;;;;;;;6.75;5.53;;;18.10;99.90;;;;;;4996501;28;20206;-65
2022/08/16 01:08:55;;;;;;;8.07;5.60;;;18.10;99.90;;;;;;5014928;28;20176;-65
2022/08/16 01:11:25;;;;;;;7.50;5.90;;;18.10;99.90;;;;;;4996641;28;20200;-65
2022/08/16 01:13:55;;;;;;;11.35;7.97;;;18.10;99.90;;;;;;5014259;28;20176;-65
2022/08/16 01:16:25;;;;;;;12.63;8.18;;;18.10;99.90;;;;;;5014465;28;20278;-65
2022/08/16 01:19:06;;;;;;;11.63;6.95;;;18.10;99.90;;;;;;5014642;28;20175;-65
2022/08/16 01:21:46;;;;;;;8.52;5.95;;;17.90;99.90;;;;;;5014117;28;20637;-65
2022/08/16 01:24:32;;;;;;;8.75;6.22;;;17.80;99.90;;;;;;5014530;28;20598;-65
2022/08/16 01:27:20;;;;;;;8.88;6.13;;;17.70;99.90;;;;;;5013765;28;20171;-65
2022/08/16 01:30:17;;;;;;;7.63;5.88;;;17.60;99.90;;;;;;5014091;28;20254;-65
2022/08/16 01:32:43;;;;;;;6.95;5.95;;;17.60;99.90;;;;;;5014093;28;20257;-65
2022/08/16 01:35:47;;;;;;;10.77;7.13;;;17.60;99.90;;;;;;5013992;28;20199;-65
2022/08/16 01:38:25;;;;;;;9.48;7.70;;;17.70;99.90;;;;;;4981298;28;20203;-65
2022/08/16 01:40:55;;;;;;;9.48;6.45;;;17.70;99.90;;;;;;4994632;28;20203;-65
2022/08/16 01:43:22;;;;;;;9.18;7.35;;;17.70;99.90;;;;;;4994298;28;20183;-65
2022/08/16 01:45:52;;;;;;;8.65;7.15;;;17.70;99.90;;;;;;4976964;28;20263;-65
2022/08/16 01:48:18;;;;;;;9.63;6.30;;;17.70;99.90;;;;;;4994544;28;20171;-65
2022/08/16 01:50:44;;;;;;;8.30;6.35;;;17.70;99.90;;;;;;4993962;28;20200;-65
2022/08/16 01:53:10;;;;;;;7.88;5.90;;;17.70;99.90;;;;;;4994250;28;20176;-65
2022/08/16 01:55:37;;;;;;;8.35;6.07;;;17.60;99.90;;;;;;4994074;28;20275;-65
2022/08/16 01:58:03;;;;;;;8.15;6.20;;;17.60;99.90;;;;;;4994880;28;20641;-65
2022/08/16 02:00:29;;;;;;;10.52;6.40;;;17.60;99.90;;;;;;4994316;28;20196;-65
2022/08/16 02:02:55;;;;;;;7.35;6.15;;;17.50;99.90;;;;;;4994170;28;20243;-65
2022/08/16 02:05:21;;;;;;;9.10;6.88;;;17.50;99.90;;;;;;4993923;28;20180;-65
2022/08/16 02:07:47;;;;;;;9.38;6.10;;;17.40;99.90;;;;;;4989738;28;20560;-65
2022/08/16 02:10:13;;;;;;;9.23;5.82;;;17.40;99.90;;;;;;5013657;28;20679;-65
2022/08/16 02:12:40;;;;;;;7.88;6.20;;;17.30;99.90;;;;;;5013725;28;20211;-65
2022/08/16 02:15:07;;;;;;;7.40;6.38;;;17.30;99.90;;;;;;5013524;28;20279;-65
2022/08/16 02:17:33;;;;;;;7.88;5.97;;;17.30;99.90;;;;;;5013619;28;20176;-65
2022/08/16 02:19:59;;;;;;;9.45;5.85;;;17.30;99.90;;;;;;5013604;28;20657;-65
2022/08/16 02:22:25;;;;;;;7.32;6.35;;;17.20;99.90;;;;;;4995740;28;20215;-65
2022/08/16 02:24:51;;;;;;;11.05;7.25;;;17.30;99.90;;;;;;4995936;28;20180;-65
2022/08/16 02:27:17;;;;;;;10.05;7.70;;;17.30;99.90;;;;;;5013732;28;20580;-65
2022/08/16 02:29:43;;;;;;;8.68;6.82;;;17.30;99.90;;;;;;4996021;28;20211;-65
2022/08/16 02:32:14;;;;;;;9.85;7.88;;;17.30;99.90;;;;;;5013615;28;20191;-65
2022/08/16 02:34:40;;;;;;;8.75;7.57;;;17.30;99.90;;;;;;4996427;28;20611;-65
2022/08/16 02:37:06;;;;;;;10.75;7.43;;;17.20;99.90;;;;;;5013768;28;20179;-65
2022/08/16 02:39:32;;;;;;;9.52;7.43;;;17.20;99.90;;;;;;5016209;28;20683;-65
2022/08/16 02:41:58;;;;;;;10.27;7.80;;;17.10;99.90;;;;;;5017997;28;20175;-65
2022/08/16 02:44:24;;;;;;;13.50;9.15;;;17.10;99.90;;;;;;5017050;28;20190;-65
2022/08/16 02:46:50;;;;;;;11.63;8.50;;;17.20;99.90;;;;;;5017222;28;20183;-65
2022/08/16 02:49:16;;;;;;;13.30;8.68;;;17.30;99.90;;;;;;5016853;28;20247;-65
2022/08/16 02:51:43;;;;;;;10.27;8.55;;;17.30;99.90;;;;;;5016514;28;20172;-65
2022/08/16 02:54:09;;;;;;;12.63;8.40;;;17.30;99.90;;;;;;5017421;28;20203;-65
2022/08/16 02:56:35;;;;;;;10.65;7.82;;;17.20;99.90;;;;;;5016565;28;20211;-65
2022/08/16 02:59:02;;;;;;;12.68;8.20;;;17.20;99.90;;;;;;5016768;28;20307;-65
2022/08/16 03:01:31;;;;;;;8.43;6.88;;;17.20;99.90;;;;;;5016884;28;20176;-65
2022/08/16 03:03:59;;;;;;;10.32;6.35;;;17.20;99.90;;;;;;5031928;28;20171;-65
2022/08/16 03:06:26;;;;;;;9.75;6.60;;;17.20;99.90;;;;;;5016809;28;20179;-65
2022/08/16 03:08:53;;;;;;;10.02;6.60;;;17.20;99.90;;;;;;5016596;28;20180;-65
2022/08/16 03:11:19;;;;;;;10.35;6.97;;;17.10;99.90;;;;;;5016589;28;20195;-65
2022/08/16 03:13:51;;;;;;;9.77;6.55;;;17.10;99.90;;;;;;5016501;28;20557;-65
2022/08/16 03:16:19;;;;;;;9.30;6.32;;;17.10;99.90;;;;;;5016362;28;20191;-65
2022/08/16 03:18:45;;;;;;;9.68;6.20;;;17.00;99.90;;;;;;5016356;28;20172;-65
2022/08/16 03:21:11;;;;;;;10.27;6.13;;;17.00;99.90;;;;;;4998536;28;20199;-65
2022/08/16 03:23:37;;;;;;;9.50;6.10;;;16.90;99.90;;;;;;5016616;28;20175;-65
2022/08/16 03:26:03;;;;;;;8.25;6.35;;;16.90;99.90;;;;;;5016725;28;20263;-65
2022/08/16 03:28:30;;;;;;;8.15;6.28;;;16.80;99.90;;;;;;5016624;28;20196;-65
2022/08/16 03:30:55;;;;;;;9.98;6.07;;;16.70;99.90;;;;;;5016095;28;20195;-65
2022/08/16 03:33:21;;;;;;;6.72;5.80;;;16.60;99.90;;;;;;5016121;28;20184;-65
2022/08/16 03:35:47;;;;;;;10.52;6.65;;;16.60;99.90;;;;;;5016056;28;20199;-65
2022/08/16 03:38:14;;;;;;;9.60;7.10;;;16.60;99.90;;;;;;5015729;28;20233;-66
2022/08/16 03:40:41;;;;;;;7.95;6.30;;;16.60;99.90;;;;;;5031879;28;20660;-63
2022/08/16 03:43:09;;;;;;;7.32;5.97;;;16.60;99.90;;;;;;5016119;28;20167;-63
2022/08/16 03:45:37;;;;;;;7.55;6.07;;;16.60;99.90;;;;;;5016042;28;20267;-63
2022/08/16 03:48:03;;;;;;;8.63;6.40;;;16.60;99.90;;;;;;4998132;28;20180;-63
2022/08/16 03:50:30;;;;;;;9.48;6.20;;;16.70;99.90;;;;;;5014721;28;20242;-63
2022/08/16 03:52:57;;;;;;;7.57;6.45;;;16.70;99.90;;;;;;5015314;28;20203;-63
2022/08/16 03:55:23;;;;;;;9.75;6.03;;;16.70;99.90;;;;;;5030674;28;20244;-64
2022/08/16 03:57:50;;;;;;;7.88;6.45;;;16.70;99.90;;;;;;5015840;28;20604;-63
2022/08/16 04:00:19;;;;;;;9.85;7.07;;;16.70;99.90;;;;;;5015507;28;20201;-63
2022/08/16 04:02:45;;;;;;;8.90;6.70;;;16.70;99.90;;;;;;5015900;28;20183;-66
2022/08/16 04:05:17;;;;;;;8.38;6.53;;;16.70;99.90;;;;;;5015598;28;20223;-66
2022/08/16 04:07:43;;;;;;;9.40;7.25;;;16.60;99.90;;;;;;5015406;28;20176;-66
2022/08/16 04:10:11;;;;;;;8.65;6.55;;;16.60;99.90;;;;;;5015465;28;20192;-66
2022/08/16 04:12:38;;;;;;;7.05;5.78;;;16.60;99.90;;;;;;5015712;28;20672;-66
2022/08/16 04:15:07;;;;;;;9.60;6.38;;;16.50;99.90;;;;;;5015614;28;20724;-66
2022/08/16 04:17:32;;;;;;;9.38;6.18;;;16.50;99.90;;;;;;5015748;28;20172;-66
2022/08/16 04:19:58;;;;;;;9.23;6.43;;;16.50;99.90;;;;;;5015604;28;20254;-66
2022/08/16 04:22:24;;;;;;;8.13;6.65;;;16.50;99.90;;;;;;4998529;28;20263;-66
2022/08/16 04:24:51;;;;;;;10.88;6.05;;;16.50;99.90;;;;;;5016222;28;20641;-66
2022/08/16 04:27:16;;;;;;;9.02;6.72;;;16.50;99.90;;;;;;5016058;28;20188;-66
2022/08/16 04:29:42;;;;;;;10.07;6.20;;;16.50;99.90;;;;;;5016065;28;20282;-65
2022/08/16 04:32:08;;;;;;;9.13;7.40;;;16.50;99.90;;;;;;5015725;28;20175;-65
2022/08/16 04:34:38;;;;;;;9.90;7.50;;;16.60;99.90;;;;;;5015721;28;20631;-66
2022/08/16 04:37:04;;;;;;;13.00;8.00;;;16.70;99.90;;;;;;5015311;28;20700;-66
2022/08/16 04:39:32;;;;;;;8.70;7.55;;;16.60;99.90;;;;;;5015199;28;20254;-66
2022/08/16 04:41:58;;;;;;;12.20;8.13;;;16.60;99.90;;;;;;5030515;28;20183;-66
2022/08/16 04:44:24;;;;;;;10.95;7.90;;;16.50;99.90;;;;;;5015340;28;20259;-66
2022/08/16 04:46:51;;;;;;;11.57;8.40;;;16.50;99.90;;;;;;5015611;28;20168;-66
2022/08/16 04:49:17;;;;;;;13.98;9.93;;;16.50;99.90;;;;;;5015563;28;20176;-67
2022/08/16 04:51:43;;;;;;;12.45;9.23;;;16.50;99.90;;;;;;5014960;28;20164;-66
2022/08/16 04:54:09;;;;;;;10.07;7.03;;;16.50;99.90;;;;;;5014927;28;20194;-65
2022/08/16 04:56:36;;;;;;;13.18;6.88;;;16.60;99.90;;;;;;4997507;28;20219;-66
2022/08/16 04:59:02;;;;;;;8.02;6.60;;;16.50;99.90;;;;;;5015264;28;20177;-66
2022/08/16 05:01:28;;;;;;;8.60;6.35;;;16.60;99.90;;;;;;5014414;28;20192;-66
2022/08/16 05:03:54;;;;;;;8.55;6.53;;;16.60;99.90;;;;;;4997507;28;20203;-65
2022/08/16 05:06:20;;;;;;;8.70;6.32;;;16.50;99.90;;;;;;5014485;28;20167;-65
2022/08/16 05:08:46;;;;;;;8.52;6.97;;;16.50;99.90;;;;;;5014823;28;20581;-65
2022/08/16 05:11:13;;;;;;;8.32;6.75;;;16.50;99.90;;;;;;5014597;28;20283;-65
2022/08/16 05:13:42;;;;;;;9.30;6.53;;;16.60;99.90;;;;;;5014666;28;20185;-66
2022/08/16 05:16:11;;;;;;;9.98;7.00;;;16.60;99.90;;;;;;5014229;28;20286;-65
2022/08/16 05:18:37;;;;;;;8.70;6.72;;;16.70;99.90;;;;;;5014304;28;20247;-65
2022/08/16 05:21:03;;;;;;;11.30;6.35;;;16.70;99.90;;;;;;5014221;28;20226;-65
2022/08/16 05:23:29;;;;;;;7.78;6.53;;;16.80;99.90;;;;;;5013990;28;20243;-65
2022/08/16 05:25:54;;;;;;;8.27;6.60;;;16.90;99.90;;;;;;5014078;28;20188;-65
2022/08/16 05:28:20;;;;;;;8.20;6.57;;;17.00;99.90;;;;;;5013969;28;20172;-65
2022/08/16 05:30:46;;;;;;;9.38;7.43;;;17.10;99.90;;;;;;5014001;28;20254;-65
2022/08/16 05:33:12;;;;;;;8.02;6.65;;;17.10;99.90;;;;;;5013968;28;20179;-65
2022/08/16 05:35:38;;;;;;;9.18;7.38;;;17.20;99.90;;;;;;5014095;28;20203;-65
2022/08/16 05:38:03;;;;;;;9.45;6.97;;;17.30;99.90;;;;;;4996099;28;20184;-65
2022/08/16 05:40:29;;;;;;;8.27;6.65;;;17.30;99.90;;;;;;4996284;28;20278;-65
2022/08/16 05:42:55;;;;;;;10.10;7.10;;;17.40;99.90;;;;;;5013731;28;20539;-65
2022/08/16 05:45:21;;;;;;;8.40;6.55;;;17.40;99.90;;;;;;5013916;28;20195;-65
2022/08/16 05:47:46;;;;;;;9.15;6.28;;;17.50;99.90;;;;;;5014003;28;20182;-65
2022/08/16 05:50:12;;;;;;;10.43;6.53;;;17.60;99.90;;;;;;5013901;28;20238;-65
2022/08/16 05:52:38;;;;;;;8.02;7.13;;;17.70;99.90;;;;;;5013448;28;20176;-65
2022/08/16 05:55:05;;;;;;;7.90;6.22;;;17.80;99.90;;;;;;5013584;28;20218;-65
2022/08/16 05:57:31;;;;;;;8.85;6.40;;;17.80;99.90;;;;;;4995901;28;20192;-65
2022/08/16 05:59:57;;;;;;;7.63;6.15;;;17.90;99.90;;;;;;5014046;28;20195;-65
2022/08/16 06:02:26;;;;;;;9.60;6.20;;;18.00;99.90;;;;;;4995867;28;20228;-65
2022/08/16 06:04:52;;;;;;;9.25;6.90;;;18.10;99.90;;;;;;5013717;28;20179;-65
2022/08/16 06:07:18;;;;;;;7.63;6.20;;;18.20;99.90;;;;;;4995423;28;20187;-65
2022/08/16 06:09:44;;;;;;;8.70;5.68;;;18.30;99.90;;;;;;5013344;28;20656;-65
2022/08/16 06:12:13;;;;;;;6.05;5.45;;;18.40;99.90;;;;;;4995775;28;20559;-65
2022/08/16 06:14:39;;;;;;;8.82;6.53;;;18.50;99.90;;;;;;5015309;28;20179;-68
2022/08/16 06:17:05;;;;;;;7.40;5.63;;;18.60;99.90;;;;;;5017395;28;20171;-65
2022/08/16 06:19:31;;;;;;;6.93;5.05;;;18.60;99.90;;;;;;5017229;28;20195;-65
2022/08/16 06:21:56;;;;;;;8.40;5.82;;;18.80;99.90;;;;;;4999566;28;20262;-65
2022/08/16 06:24:22;;;;;;;6.97;4.80;;;18.90;99.90;;;;;;5017301;28;20226;-65
2022/08/16 06:26:48;;;;;;;9.43;5.82;;;19.00;99.90;;;;;;5017277;28;20183;-65
2022/08/16 06:29:14;;;;;;;7.60;5.57;;;19.10;99.90;;;;;;5017271;28;20230;-65
2022/08/16 06:31:40;;;;;;;10.30;5.75;;;19.20;99.90;;;;;;5017158;28;20207;-65
2022/08/16 06:34:06;;;;;;;6.40;5.07;;;19.30;99.90;;;;;;5017208;28;20188;-65
2022/08/16 06:36:32;;;;;;;6.93;5.22;;;19.50;99.90;;;;;;5017083;28;20195;-65
2022/08/16 06:38:58;;;;;;;8.82;5.38;;;19.60;99.90;;;;;;5016582;28;20236;-65
2022/08/16 06:41:24;;;;;;;6.47;4.95;;;19.70;99.90;;;;;;5016894;28;20715;-65
2022/08/16 06:43:50;;;;;;;8.05;5.35;;;19.80;99.90;;;;;;5017172;28;20175;-65
2022/08/16 06:46:36;;;;;;;5.85;4.80;;;20.00;99.90;;;;;;5016858;28;20203;-63
2022/08/16 06:49:04;;;;;;;5.95;4.60;;;20.20;99.90;;;;;;5016812;28;20236;-63
2022/08/16 06:51:30;;;;;;;6.38;4.63;;;20.30;99.90;;;;;;5016611;28;20202;-63
2022/08/16 06:53:56;;;;;;;7.50;4.80;;;20.50;99.90;;;;;;5016393;28;20172;-63
2022/08/16 06:56:22;;;;;;;7.57;4.72;;;20.70;99.90;;;;;;5016670;28;20649;-63
2022/08/16 06:58:47;;;;;;;5.78;4.38;;;20.80;99.90;;;;;;5016534;28;20211;-63
2022/08/16 07:01:14;;;;;;;5.63;4.40;;;20.90;99.90;;;;;;5016549;28;20514;-63
2022/08/16 07:03:39;;;;;;;5.97;4.55;;;21.00;99.90;;;;;;5016486;28;20172;-63
2022/08/16 07:06:05;;;;;;;8.02;4.72;;;21.10;99.90;;;;;;5016454;28;20187;-63
2022/08/16 07:08:31;;;;;;;5.10;4.30;;;21.20;99.90;;;;;;5016141;28;20187;-63
2022/08/16 07:10:57;;;;;;;5.57;4.45;;;21.30;99.90;;;;;;5016500;28;20687;-63
2022/08/16 07:13:24;;;;;;;6.65;4.32;;;21.40;99.90;;;;;;5016247;28;20183;-63
2022/08/16 07:15:50;;;;;;;11.02;4.35;;;21.50;99.90;;;;;;5016105;28;20200;-63
2022/08/16 07:18:19;;;;;;;6.78;4.50;;;21.50;99.90;;;;;;5016372;28;20180;-63
2022/08/16 07:20:46;;;;;;;4.22;3.83;;;21.60;99.90;;;;;;5016295;28;20184;-63
2022/08/16 07:23:12;;;;;;;6.85;4.68;;;21.70;99.90;;;;;;5015796;28;20187;-63
2022/08/16 07:25:38;;;;;;;7.38;4.68;;;21.90;99.90;;;;;;5015966;28;20191;-63
2022/08/16 07:28:04;;;;;;;9.90;5.13;;;22.00;99.90;;;;;;5015901;28;20718;-63
2022/08/16 07:30:30;;;;;;;8.70;4.57;;;22.00;99.90;;;;;;5015817;28;20345;-63
2022/08/16 07:32:56;;;;;;;6.00;4.43;;;22.10;99.90;;;;;;5015844;28;20172;-63
2022/08/16 07:35:23;;;;;;;7.03;4.57;;;22.20;99.90;;;;;;5016097;28;20556;-63
2022/08/16 07:37:49;;;;;;;7.45;4.45;;;22.20;99.90;;;;;;5015525;28;20645;-63
2022/08/16 07:40:15;;;;;;;6.47;4.70;;;22.30;99.90;;;;;;4998020;28;20206;-63
2022/08/16 07:42:41;;;;;;;6.90;4.75;;;22.40;99.90;;;;;;5030982;28;20554;-63
2022/08/16 07:45:08;;;;;;;7.85;4.90;;;22.50;99.90;;;;;;5015675;28;20187;-63
2022/08/16 07:47:34;;;;;;;6.35;4.90;;;22.50;99.90;;;;;;5015607;28;20576;-63
2022/08/16 07:50:00;;;;;;;10.73;4.78;;;22.60;99.90;;;;;;5015500;28;20653;-63
2022/08/16 07:52:26;;;;;;;9.13;4.45;;;22.60;99.90;;;;;;4997688;28;20180;-63
2022/08/16 07:54:52;;;;;;;7.18;5.10;;;22.70;99.90;;;;;;5015491;28;20186;-63
2022/08/16 07:57:19;;;;;;;7.25;4.65;;;22.80;99.90;;;;;;5015406;28;20656;-63
2022/08/16 07:59:44;;;;;;;9.00;4.90;;;22.80;99.90;;;;;;5015348;28;20202;-63
2022/08/16 08:02:12;;;;;;;8.80;5.47;;;22.80;99.90;;;;;;5015495;28;20197;-63
2022/08/16 08:04:39;;;;;;;9.45;5.25;;;22.90;99.90;;;;;;5015475;28;20196;-63
2022/08/16 08:07:05;;;;;;;8.25;4.82;;;23.00;99.90;;;;;;4997411;28;20671;-63
2022/08/16 08:09:31;;;;;;;12.85;4.75;;;23.00;99.90;;;;;;5015293;28;20684;-63
2022/08/16 08:11:57;;;;;;;7.38;4.57;;;23.00;99.90;;;;;;5015219;28;20176;-63
2022/08/16 08:14:23;;;;;;;6.15;4.85;;;23.10;99.90;;;;;;5015568;28;20676;-63
2022/08/16 08:16:49;;;;;;;10.23;4.43;;;23.10;99.90;;;;;;5015142;28;20227;-63
2022/08/16 08:19:15;;;;;;;7.47;4.93;;;23.30;99.90;;;;;;5015450;28;20238;-64
2022/08/16 08:21:42;;;;;;;7.85;5.93;;;23.30;99.90;;;;;;5015438;28;20172;-63
2022/08/16 08:24:09;;;;;;;6.38;5.10;;;23.40;99.90;;;;;;4997641;28;20175;-63
2022/08/16 08:26:35;;;;;;;8.30;4.65;;;23.40;99.90;;;;;;5015250;28;20175;-63
2022/08/16 08:29:03;;;;;;;9.48;5.68;;;23.40;99.90;;;;;;5015650;28;20170;-64
2022/08/16 08:31:29;;;;;;;9.65;5.43;;;23.50;99.90;;;;;;4997448;28;20203;-64
2022/08/16 08:33:55;;;;;;;8.82;5.35;;;23.60;99.90;;;;;;5014967;28;20187;-63
2022/08/16 08:36:30;;;;;;;8.73;4.95;;;23.60;99.90;;;;;;5014347;28;20570;-63
2022/08/16 08:38:57;;;;;;;7.55;4.50;;;23.70;99.90;;;;;;5014621;28;20175;-63
2022/08/16 08:41:24;;;;;;;6.40;4.55;;;23.70;99.90;;;;;;5014752;28;20200;-64
2022/08/16 08:43:50;;;;;;;5.95;4.85;;;23.90;99.90;;;;;;5030065;28;20179;-63
2022/08/16 08:46:17;;;;;;;16.77;5.47;;;24.00;99.90;;;;;;5015222;28;20183;-64
2022/08/16 08:48:44;;;;;;;6.18;4.68;;;24.20;99.90;;;;;;5014687;28;20706;-64
2022/08/16 08:51:09;;;;;;;11.35;5.45;;;24.30;99.90;;;;;;5014608;28;20249;-63
2022/08/16 08:53:36;;;;;;;8.40;5.25;;;24.50;99.90;;;;;;4996629;28;20184;-63
2022/08/16 08:56:05;;;;;;;7.05;4.88;;;24.60;99.90;;;;;;5014561;28;20203;-64
2022/08/16 08:58:35;;;;;;;7.05;4.90;;;24.70;99.90;;;;;;5014506;28;20171;-64
2022/08/16 09:01:03;;;;;;;8.85;5.43;;;24.70;99.90;;;;;;5014318;28;20214;-63
2022/08/16 09:03:29;;;;;;;8.45;5.07;;;24.90;99.90;;;;;;4996801;28;20175;-63
2022/08/16 09:05:55;;;;;;;9.00;5.85;;;25.00;99.90;;;;;;5014206;28;20194;-63
2022/08/16 09:08:21;;;;;;;7.07;5.57;;;25.20;99.90;;;;;;5014037;28;20219;-64
2022/08/16 09:10:47;;;;;;;8.70;5.43;;;25.20;99.90;;;;;;5014276;28;20699;-63
2022/08/16 09:13:13;;;;;;;7.13;5.30;;;25.30;99.90;;;;;;5014154;28;20176;-63
2022/08/16 09:15:39;;;;;;;7.72;5.20;;;25.40;99.90;;;;;;4996609;28;20623;-63
2022/08/16 09:18:05;;;;;;;8.05;5.25;;;25.50;99.90;;;;;;5014970;28;20563;-64
2022/08/16 09:20:31;;;;;;;5.97;4.78;;;25.60;99.90;;;;;;5014424;28;20203;-63
2022/08/16 09:22:58;;;;;;;7.32;5.07;;;25.70;99.90;;;;;;5013893;28;20238;-63
2022/08/16 09:25:24;;;;;;;11.63;5.72;;;25.80;99.90;;;;;;5013946;28;20207;-63
2022/08/16 09:27:51;;;;;;;8.32;5.20;;;26.00;99.90;;;;;;5014104;28;20180;-63
2022/08/16 09:30:16;;;;;;;8.38;5.30;;;26.10;99.90;;;;;;5013912;28;20560;-63
2022/08/16 09:32:43;;;;;;;6.68;4.80;;;26.30;99.90;;;;;;5013764;28;20179;-63
2022/08/16 09:35:09;;;;;;;11.88;5.75;;;26.30;99.90;;;;;;5013966;28;20214;-63
2022/08/16 09:37:35;;;;;;;8.80;4.82;;;26.40;99.90;;;;;;4995835;28;20195;-63
2022/08/16 09:40:02;;;;;;;7.35;5.00;;;26.40;99.90;;;;;;5013654;28;20224;-63
2022/08/16 09:42:28;;;;;;;6.32;5.15;;;26.50;99.90;;;;;;4996063;28;20234;-63
2022/08/16 09:44:54;;;;;;;7.57;5.18;;;26.60;99.90;;;;;;5013541;28;20262;-63
2022/08/16 09:47:21;;;;;;;7.50;5.00;;;26.70;99.90;;;;;;5028751;28;20175;-63
2022/08/16 09:49:46;;;;;;;8.45;5.00;;;26.60;99.90;;;;;;5012660;28;20203;-63
2022/08/16 09:52:12;;;;;;;6.40;4.97;;;26.60;99.90;;;;;;5013491;28;20180;-64
2022/08/16 09:54:39;;;;;;;8.48;4.45;;;26.70;99.90;;;;;;5013468;28;20175;-63
2022/08/16 09:57:06;;;;;;;5.72;4.63;;;26.80;99.90;;;;;;4995777;28;20192;-64
2022/08/16 09:59:32;;;;;;;6.95;4.70;;;27.00;99.90;;;;;;5013503;28;20282;-63
2022/08/16 10:01:59;;;;;;;7.55;5.25;;;27.20;99.90;;;;;;5013439;28;20175;-63
2022/08/16 10:04:25;;;;;;;8.68;5.72;;;27.10;99.90;;;;;;4996077;28;20279;-63
2022/08/16 10:06:55;;;;;;;9.82;5.03;;;27.10;99.90;;;;;;5013363;28;20207;-63
2022/08/16 10:09:21;;;;;;;9.50;5.10;;;26.90;99.90;;;;;;5013183;28;20199;-64
2022/08/16 10:14:44;;;;;;;7.78;4.95;;;27.10;99.90;;;;;;4943422;28;20739;-63
2022/08/16 10:17:11;;;;;;;8.95;5.18;;;27.20;99.90;;;;;;5013974;28;20179;-64
2022/08/16 10:19:37;;;;;;;7.82;5.43;;;27.30;99.90;;;;;;5013386;28;20648;-64
2022/08/16 10:22:03;;;;;;;8.65;4.82;;;27.50;99.90;;;;;;5013410;28;20176;-64
2022/08/16 10:24:28;;;;;;;5.95;4.32;;;27.50;99.90;;;;;;5013179;28;20207;-64
2022/08/16 10:26:56;;;;;;;7.10;4.43;;;27.50;99.90;;;;;;5013466;28;20172;-64
2022/08/16 10:29:22;;;;;;;11.80;5.60;;;27.60;99.90;;;;;;5013367;28;20199;-64
2022/08/16 10:31:48;;;;;;;8.45;4.72;;;27.70;99.90;;;;;;5013277;28;20172;-64
2022/08/16 10:34:14;;;;;;;6.22;4.45;;;27.70;99.90;;;;;;5013568;28;20172;-64
2022/08/16 10:36:40;;;;;;;11.50;4.28;;;27.70;99.90;;;;;;5013181;28;20202;-64
2022/08/16 10:39:07;;;;;;;6.35;4.05;;;27.70;99.90;;;;;;5013191;28;20544;-64
2022/08/16 10:41:32;;;;;;;7.35;4.28;;;27.70;99.90;;;;;;5013434;28;20302;-64
2022/08/16 10:43:59;;;;;;;8.70;4.40;;;27.80;99.90;;;;;;5013487;28;20168;-64
2022/08/16 10:46:25;;;;;;;8.48;4.88;;;27.90;99.90;;;;;;5013301;28;20175;-64
2022/08/16 10:48:51;;;;;;;5.93;4.50;;;28.10;99.90;;;;;;4995750;28;20188;-64
2022/08/16 10:51:17;;;;;;;6.85;4.50;;;28.10;99.90;;;;;;5013200;28;20271;-64
2022/08/16 10:53:44;;;;;;;5.72;3.97;;;28.30;99.90;;;;;;5013133;28;20760;-64
2022/08/16 10:56:11;;;;;;;5.75;4.10;;;28.30;99.90;;;;;;5013338;28;20245;-64
2022/08/16 10:58:39;;;;;;;6.20;4.43;;;28.30;99.90;;;;;;5013265;28;20179;-64
2022/08/16 11:01:07;;;;;;;6.82;4.28;;;28.40;99.90;;;;;;5015770;28;20656;-64
2022/08/16 11:03:33;;;;;;;9.07;5.07;;;28.60;99.90;;;;;;5017623;28;20175;-64
2022/08/16 11:06:00;;;;;;;9.10;4.75;;;28.70;99.90;;;;;;5017183;28;20183;-64
2022/08/16 11:08:27;;;;;;;5.72;4.57;;;28.70;99.90;;;;;;5016857;28;20180;-64
2022/08/16 11:10:52;;;;;;;6.65;5.03;;;28.80;99.90;;;;;;5016800;28;20266;-64
2022/08/16 11:13:24;;;;;;;7.18;4.25;;;29.00;99.90;;;;;;5016815;28;20182;-64
2022/08/16 11:15:51;;;;;;;8.35;4.43;;;29.10;99.90;;;;;;5016467;28;20192;-64
2022/08/16 11:18:17;;;;;;;5.85;3.97;;;29.20;99.90;;;;;;5016307;28;20180;-64
2022/08/16 11:20:44;;;;;;;7.72;4.40;;;28.90;99.90;;;;;;5016541;28;20192;-64
2022/08/16 11:23:10;;;;;;;8.45;4.40;;;28.90;99.90;;;;;;5016383;28;20176;-64
2022/08/16 11:25:36;;;;;;;7.25;4.47;;;29.00;99.90;;;;;;5016314;28;20668;-64
2022/08/16 11:28:03;;;;;;;5.47;4.07;;;29.20;99.90;;;;;;5016218;28;20187;-64
2022/08/16 11:30:32;;;;;;;7.03;4.50;;;29.40;99.90;;;;;;5016222;28;20195;-64
2022/08/16 11:33:00;;;;;;;10.80;5.10;;;29.20;99.90;;;;;;5016059;28;20168;-64
2022/08/16 11:35:28;;;;;;;6.85;4.15;;;29.10;99.90;;;;;;5031249;28;20314;-64
2022/08/16 11:38:09;;;;;;;7.55;4.68;;;29.00;99.90;;;;;;5015851;28;20167;-64
2022/08/16 11:40:40;;;;;;;7.15;4.20;;;28.60;99.90;;;;;;5015853;28;20266;-64
2022/08/16 11:43:07;;;;;;;6.75;4.32;;;28.50;99.90;;;;;;5016321;28;20153;-64
2022/08/16 11:45:34;;;;;;;8.70;4.97;;;28.50;99.90;;;;;;5016143;28;20176;-64
2022/08/16 11:48:03;;;;;;;7.82;4.68;;;28.20;99.90;;;;;;5015947;28;20641;-64
2022/08/16 11:50:32;;;;;;;8.07;4.30;;;28.10;99.90;;;;;;5016023;28;20204;-64
2022/08/16 11:52:58;;;;;;;8.00;4.53;;;28.20;99.90;;;;;;5030872;28;20602;-64
2022/08/16 11:55:25;;;;;;;8.73;4.90;;;28.30;99.90;;;;;;5031359;28;20214;-65
2022/08/16 11:57:51;;;;;;;8.27;5.00;;;28.70;99.90;;;;;;4998512;28;20180;-64
2022/08/16 12:00:17;;;;;;;5.63;4.15;;;28.70;99.90;;;;;;4998351;28;20196;-64
2022/08/16 12:02:43;;;;;;;8.48;5.03;;;28.90;99.90;;;;;;5016045;28;20192;-64
2022/08/16 12:05:11;;;;;;;6.70;4.10;;;29.30;99.90;;;;;;5015578;28;20266;-64
2022/08/16 12:07:38;;;;;;;9.38;5.15;;;29.60;99.90;;;;;;5015190;28;20669;-65
2022/08/16 12:10:11;;;;;;;5.68;4.25;;;30.10;99.90;;;;;;5015252;28;20244;-64
2022/08/16 12:12:36;;;;;;;8.93;4.68;;;30.10;99.90;;;;;;5014512;28;20641;-64
2022/08/16 12:15:03;;;;;;;6.63;4.38;;;30.20;99.90;;;;;;5015370;28;20211;-64
2022/08/16 12:17:30;;;;;;;12.07;4.63;;;30.10;99.90;;;;;;5015966;28;20539;-64
2022/08/16 12:19:56;;;;;;;12.05;4.40;;;30.20;99.90;;;;;;5015310;28;20703;-64
2022/08/16 12:22:23;;;;;;;7.10;4.35;;;30.30;99.90;;;;;;5015394;28;20206;-64
2022/08/16 12:24:50;;;;;;;5.80;4.65;;;30.40;99.90;;;;;;5015057;28;20202;-64
2022/08/16 12:27:17;;;;;;;8.27;4.47;;;30.60;99.90;;;;;;5015289;28;20230;-65
2022/08/16 12:29:42;;;;;;;8.15;4.38;;;30.90;99.90;;;;;;4997413;28;20194;-64
2022/08/16 12:32:08;;;;;;;6.07;4.15;;;30.90;99.90;;;;;;5015123;28;20171;-65
2022/08/16 12:34:34;;;;;;;5.80;3.92;;;31.10;99.90;;;;;;5015258;28;20676;-65
2022/08/16 12:37:01;;;;;;;5.80;3.97;;;31.20;99.90;;;;;;5014833;28;20195;-65
2022/08/16 12:39:28;;;;;;;5.78;3.90;;;31.30;99.90;;;;;;5014478;28;20168;-65
2022/08/16 12:41:55;;;;;;;6.53;4.00;;;31.30;99.90;;;;;;5014770;28;20172;-64
2022/08/16 12:44:20;;;;;;;6.65;3.92;;;31.20;99.90;;;;;;5015024;28;20168;-65
2022/08/16 12:48:56;;;;;;;4.85;3.75;;;31.50;99.90;;;;;;5014848;28;20519;-64